createdAt,value
2024-01-06T00:02:47.901Z,8.77
2024-01-06T00:05:50.896Z,8.74
2024-01-06T00:08:55.616Z,8.74
2024-01-06T00:11:58.543Z,8.74
2024-01-06T00:15:00.897Z,8.61
2024-01-06T00:18:04.008Z,8.59
2024-01-06T00:21:06.468Z,8.61
2024-01-06T00:24:09.391Z,8.63
2024-01-06T00:27:11.760Z,8.73
2024-01-06T00:30:14.857Z,8.60
2024-01-06T00:33:17.301Z,8.55
2024-01-06T00:36:20.230Z,8.55
2024-01-06T00:39:22.648Z,8.59
2024-01-06T00:42:25.594Z,8.46
2024-01-06T00:45:28.029Z,8.49
2024-01-06T00:48:31.220Z,8.34
2024-01-06T00:51:34.573Z,8.28
2024-01-06T00:54:38.517Z,8.24
2024-01-06T00:57:40.995Z,8.34
2024-01-06T01:00:44.000Z,8.35
2024-01-06T01:03:46.562Z,8.21
2024-01-06T01:06:49.755Z,8.10
2024-01-06T01:09:52.376Z,8.09
2024-01-06T01:12:55.297Z,8.06
2024-01-06T01:15:58.337Z,8.06
2024-01-06T01:19:03.194Z,8.06
2024-01-06T01:22:05.558Z,8.04
2024-01-06T01:25:09.357Z,8.20
2024-01-06T01:28:11.918Z,8.03
2024-01-06T01:31:14.887Z,7.99
2024-01-06T01:34:17.401Z,7.97
2024-01-06T01:37:20.693Z,8.10
2024-01-06T01:40:23.093Z,8.06
2024-01-06T01:43:26.242Z,8.09
2024-01-06T01:46:29.249Z,8.07
2024-01-06T01:49:34.064Z,8.27
2024-01-06T01:52:37.876Z,8.16
2024-01-06T01:55:44.866Z,8.16
2024-01-06T01:58:48.081Z,8.40
2024-01-06T02:01:50.991Z,8.33
2024-01-06T02:04:53.910Z,8.33
2024-01-06T02:07:57.110Z,8.31
2024-01-06T02:10:59.626Z,8.35
2024-01-06T02:14:02.720Z,8.35
2024-01-06T02:17:05.124Z,8.39
2024-01-06T02:20:08.910Z,8.54
2024-01-06T02:23:11.305Z,8.50
2024-01-06T02:26:15.975Z,8.62
2024-01-06T02:29:18.342Z,8.42
2024-01-06T02:32:21.184Z,8.47
2024-01-06T02:35:23.593Z,8.48
2024-01-06T02:38:26.481Z,8.46
2024-01-06T02:41:28.833Z,8.50
2024-01-06T02:44:31.980Z,8.53
2024-01-06T02:47:34.352Z,8.50
2024-01-06T02:50:37.260Z,8.52
2024-01-06T02:53:39.587Z,8.33
2024-01-06T02:56:42.451Z,8.39
2024-01-06T02:59:44.766Z,8.40
2024-01-06T03:02:47.641Z,8.32
2024-01-06T03:05:50.669Z,8.44
2024-01-06T03:08:53.765Z,8.45
2024-01-06T03:11:56.143Z,8.30
2024-01-06T03:14:59.338Z,8.43
2024-01-06T03:18:01.841Z,8.38
2024-01-06T03:21:04.955Z,8.25
2024-01-06T03:24:08.334Z,8.21
2024-01-06T03:27:11.260Z,8.40
2024-01-06T03:30:14.002Z,8.51
2024-01-06T03:33:17.081Z,8.50
2024-01-06T03:36:19.512Z,8.50
2024-01-06T03:39:22.427Z,8.57
2024-01-06T03:42:24.732Z,8.50
2024-01-06T03:45:27.954Z,8.30
2024-01-06T03:48:30.571Z,8.24
2024-01-06T03:51:33.971Z,8.30
2024-01-06T03:54:36.404Z,8.25
2024-01-06T03:57:39.388Z,8.26
2024-01-06T04:00:41.809Z,8.26
2024-01-06T04:03:44.879Z,8.30
2024-01-06T04:06:47.399Z,8.33
2024-01-06T04:09:50.395Z,8.55
2024-01-06T04:12:52.994Z,8.59
2024-01-06T04:15:56.199Z,8.58
2024-01-06T04:18:58.558Z,8.59
2024-01-06T04:22:01.596Z,8.45
2024-01-06T04:25:04.120Z,8.50
2024-01-06T04:28:07.007Z,8.52
2024-01-06T04:31:12.024Z,8.50
2024-01-06T04:34:15.609Z,8.63
2024-01-06T04:37:18.003Z,8.50
2024-01-06T04:40:20.868Z,8.54
2024-01-06T04:43:23.229Z,8.37
2024-01-06T04:46:26.218Z,8.29
2024-01-06T04:49:28.600Z,8.27
2024-01-06T04:52:31.555Z,8.29
2024-01-06T04:55:33.923Z,8.40
2024-01-06T04:58:36.778Z,8.55
2024-01-06T05:01:39.383Z,8.42
2024-01-06T05:04:42.268Z,8.33
2024-01-06T05:07:44.567Z,8.32
2024-01-06T05:10:50.032Z,8.26
2024-01-06T05:13:52.793Z,8.28
2024-01-06T05:16:55.700Z,8.39
2024-01-06T05:19:58.303Z,8.50
2024-01-06T05:23:01.216Z,8.50
2024-01-06T05:26:03.577Z,8.52
2024-01-06T05:29:06.488Z,8.64
2024-01-06T05:32:08.950Z,8.57
2024-01-06T05:35:11.949Z,8.51
2024-01-06T05:38:14.336Z,8.47
2024-01-06T05:41:17.213Z,8.34
2024-01-06T05:44:19.662Z,8.43
2024-01-06T05:47:22.579Z,8.39
2024-01-06T05:50:25.054Z,8.30
2024-01-06T05:53:28.204Z,8.45
2024-01-06T05:56:30.544Z,8.40
2024-01-06T05:59:36.312Z,8.30
2024-01-06T06:02:38.594Z,8.26
2024-01-06T06:05:41.702Z,8.24
2024-01-06T06:08:45.039Z,8.34
2024-01-06T06:11:50.403Z,8.27
2024-01-06T06:14:52.696Z,8.34
2024-01-06T06:17:55.683Z,8.34
2024-01-06T06:20:58.199Z,8.39
2024-01-06T06:24:01.065Z,8.45
2024-01-06T06:27:03.543Z,8.42
2024-01-06T06:30:06.836Z,8.48
2024-01-06T06:33:09.929Z,8.50
2024-01-06T06:36:12.992Z,8.47
2024-01-06T06:39:15.603Z,8.40
2024-01-06T06:42:18.291Z,8.39
2024-01-06T06:45:23.802Z,8.42
2024-01-06T06:48:26.558Z,8.44
2024-01-06T06:51:31.191Z,8.38
2024-01-06T06:54:33.978Z,8.45
2024-01-06T06:57:36.998Z,8.45
2024-01-06T07:00:40.153Z,8.42
2024-01-06T07:03:42.951Z,8.35
2024-01-06T07:06:45.860Z,8.40
2024-01-06T07:09:48.506Z,8.26
2024-01-06T07:12:51.235Z,8.33
2024-01-06T07:15:56.179Z,8.30
2024-01-06T07:19:03.488Z,8.28
2024-01-06T07:22:07.391Z,8.33
2024-01-06T07:25:10.213Z,8.21
2024-01-06T07:28:12.845Z,8.21
2024-01-06T07:31:15.862Z,8.14
2024-01-06T07:34:19.724Z,8.14
2024-01-06T07:37:22.308Z,7.99
2024-01-06T07:40:26.759Z,8.12
2024-01-06T07:43:29.411Z,8.08
2024-01-06T07:46:33.238Z,7.97
2024-01-06T07:49:35.979Z,8.01
2024-01-06T07:52:38.704Z,8.09
2024-01-06T07:55:41.586Z,8.16
2024-01-06T07:58:44.218Z,8.27
2024-01-06T08:01:46.870Z,8.28
2024-01-06T08:04:50.096Z,8.24
2024-01-06T08:07:52.933Z,8.28
2024-01-06T08:10:55.825Z,8.38
2024-01-06T08:13:58.126Z,8.31
2024-01-06T08:17:01.035Z,8.23
2024-01-06T08:20:04.570Z,8.21
2024-01-06T08:23:07.475Z,8.35
2024-01-06T08:26:13.375Z,8.29
2024-01-06T08:29:17.646Z,8.23
2024-01-06T08:32:20.153Z,8.27
2024-01-06T08:35:23.056Z,8.28
2024-01-06T08:38:25.491Z,8.34
2024-01-06T08:41:28.380Z,8.33
2024-01-06T08:44:30.715Z,8.43
2024-01-06T08:47:33.896Z,8.40
2024-01-06T08:50:36.259Z,8.33
2024-01-06T08:53:39.194Z,8.38
2024-01-06T08:56:41.520Z,8.32
2024-01-06T08:59:46.439Z,8.47
2024-01-06T09:02:50.010Z,8.42
2024-01-06T09:05:54.044Z,8.31
2024-01-06T09:08:56.422Z,8.32
2024-01-06T09:12:00.098Z,8.38
2024-01-06T09:15:02.660Z,8.31
2024-01-06T09:18:05.809Z,8.35
2024-01-06T09:21:08.263Z,8.41
2024-01-06T09:24:11.249Z,8.39
2024-01-06T09:27:14.198Z,8.45
2024-01-06T09:30:17.289Z,8.57
2024-01-06T09:33:19.799Z,8.48
2024-01-06T09:36:22.842Z,8.56
2024-01-06T09:39:25.319Z,8.53
2024-01-06T09:42:28.437Z,8.63
2024-01-06T09:45:31.117Z,8.69
2024-01-06T09:48:36.732Z,8.77
2024-01-06T09:51:40.419Z,8.74
2024-01-06T09:54:46.651Z,8.78
2024-01-06T09:57:49.078Z,8.84
2024-01-06T10:00:52.294Z,8.84
2024-01-06T10:03:55.211Z,8.83
2024-01-06T10:06:58.286Z,8.91
2024-01-06T10:10:01.226Z,8.98
2024-01-06T10:13:04.408Z,8.92
2024-01-06T10:16:07.547Z,8.84
2024-01-06T10:19:10.414Z,8.90
2024-01-06T10:22:13.315Z,8.94
2024-01-06T10:25:16.255Z,8.96
2024-01-06T10:28:19.109Z,8.95
2024-01-06T10:31:21.867Z,8.96
2024-01-06T10:34:24.919Z,8.95
2024-01-06T10:37:28.120Z,9.00
2024-01-06T10:40:30.916Z,8.99
2024-01-06T10:43:37.493Z,9.16
2024-01-06T10:46:40.940Z,9.12
2024-01-06T10:49:44.625Z,9.19
2024-01-06T10:52:47.602Z,9.23
2024-01-06T10:55:54.578Z,9.15
2024-01-06T10:58:58.613Z,9.15
2024-01-06T11:02:02.311Z,9.06
2024-01-06T11:05:09.041Z,8.97
2024-01-06T11:08:12.235Z,9.11
2024-01-06T11:11:14.844Z,9.11
2024-01-06T11:14:29.329Z,9.16
2024-01-06T11:18:00.454Z,9.07
2024-01-06T11:21:13.908Z,9.07
2024-01-06T11:24:21.479Z,9.02
2024-01-06T11:27:27.752Z,8.95
2024-01-06T11:30:30.715Z,8.94
2024-01-06T11:33:34.023Z,9.05
2024-01-06T11:36:37.406Z,8.93
2024-01-06T11:39:42.259Z,9.02
2024-01-06T11:42:45.554Z,9.06
2024-01-06T11:45:48.448Z,9.07
2024-01-06T11:48:53.273Z,9.05
2024-01-06T11:51:57.276Z,9.11
2024-01-06T11:55:00.458Z,9.03
2024-01-06T11:58:05.350Z,8.98
2024-01-06T12:01:08.328Z,8.90
2024-01-06T12:04:14.851Z,9.02
2024-01-06T12:07:17.472Z,8.99
2024-01-06T12:10:21.631Z,9.06
2024-01-06T12:13:23.939Z,9.17
2024-01-06T12:16:28.382Z,9.13
2024-01-06T12:19:38.347Z,8.99
2024-01-06T12:22:45.239Z,8.81
2024-01-06T12:25:50.783Z,8.85
2024-01-06T12:28:53.713Z,8.88
2024-01-06T12:31:56.989Z,8.99
2024-01-06T12:35:00.408Z,8.99
2024-01-06T12:38:03.608Z,9.15
2024-01-06T12:41:06.895Z,8.94
2024-01-06T12:44:09.952Z,8.99
2024-01-06T12:47:13.426Z,8.98
2024-01-06T12:50:16.106Z,8.98
2024-01-06T12:53:19.084Z,9.14
2024-01-06T12:56:21.445Z,9.22
2024-01-06T12:59:24.318Z,9.01
2024-01-06T13:02:26.673Z,9.01
2024-01-06T13:05:29.761Z,9.00
2024-01-06T13:08:32.172Z,8.97
2024-01-06T13:11:36.693Z,9.01
2024-01-06T13:14:39.660Z,9.01
2024-01-06T13:17:42.660Z,9.00
2024-01-06T13:20:45.025Z,9.12
2024-01-06T13:23:47.878Z,9.13
2024-01-06T13:26:50.191Z,8.99
2024-01-06T13:29:53.096Z,9.02
2024-01-06T13:32:55.990Z,8.98
2024-01-06T13:35:59.112Z,9.06
2024-01-06T13:39:01.711Z,9.23
2024-01-06T13:42:04.869Z,9.27
2024-01-06T13:45:07.841Z,9.19
2024-01-06T13:48:11.205Z,9.17
2024-01-06T13:51:13.695Z,8.99
2024-01-06T13:54:19.565Z,8.98
2024-01-06T13:57:22.932Z,9.05
2024-01-06T14:00:27.089Z,9.11
2024-01-06T14:03:31.679Z,8.98
2024-01-06T14:06:35.083Z,8.90
2024-01-06T14:09:38.020Z,8.89
2024-01-06T14:12:41.813Z,8.69
2024-01-06T14:15:45.169Z,8.65
2024-01-06T14:18:48.157Z,8.71
2024-01-06T14:21:51.877Z,8.67
2024-01-06T14:24:54.678Z,8.77
2024-01-06T14:27:57.753Z,8.95
2024-01-06T14:31:00.498Z,8.93
2024-01-06T14:34:04.248Z,8.88
2024-01-06T14:37:06.987Z,8.90
2024-01-06T14:40:10.032Z,8.80
2024-01-06T14:43:12.698Z,8.76
2024-01-06T14:46:15.526Z,8.75
2024-01-06T14:49:18.509Z,8.87
2024-01-06T14:52:21.361Z,8.83
2024-01-06T14:55:24.042Z,8.84
2024-01-06T14:58:26.717Z,8.76
2024-01-06T15:01:29.395Z,8.75
2024-01-06T15:04:32.480Z,8.80
2024-01-06T15:07:35.149Z,8.96
2024-01-06T15:10:37.797Z,8.95
2024-01-06T15:13:40.884Z,8.94
2024-01-06T15:16:43.589Z,8.95
2024-01-06T15:19:46.815Z,8.83
2024-01-06T15:22:49.616Z,8.93
2024-01-06T15:25:52.263Z,8.95
2024-01-06T15:28:57.292Z,8.80
2024-01-06T15:32:00.545Z,8.92
2024-01-06T15:35:03.803Z,9.03
2024-01-06T15:38:06.781Z,9.01
2024-01-06T15:41:09.397Z,8.99
2024-01-06T15:44:11.970Z,8.97
2024-01-06T15:47:14.717Z,9.04
2024-01-06T15:50:17.377Z,9.00
2024-01-06T15:53:20.218Z,8.98
2024-01-06T15:56:23.034Z,8.89
2024-01-06T15:59:25.991Z,8.98
2024-01-06T16:02:28.633Z,8.96
2024-01-06T16:05:31.525Z,8.95
2024-01-06T16:08:34.407Z,8.93
2024-01-06T16:11:39.429Z,9.05
2024-01-06T16:14:42.160Z,9.12
2024-01-06T16:17:45.167Z,9.03
2024-01-06T16:20:48.133Z,8.90
2024-01-06T16:23:51.196Z,8.93
2024-01-06T16:26:54.163Z,9.04
2024-01-06T16:29:56.758Z,9.00
2024-01-06T16:33:01.794Z,9.02
2024-01-06T16:36:06.599Z,9.08
2024-01-06T16:39:09.232Z,8.94
2024-01-06T16:42:11.854Z,8.81
2024-01-06T16:45:14.705Z,8.92
2024-01-06T16:48:17.639Z,9.01
2024-01-06T16:51:20.536Z,8.92
2024-01-06T16:54:23.658Z,8.87
2024-01-06T16:57:29.497Z,8.91
2024-01-06T17:00:32.425Z,9.01
2024-01-06T17:03:35.134Z,8.99
2024-01-06T17:06:37.984Z,9.03
2024-01-06T17:09:40.963Z,9.06
2024-01-06T17:12:44.295Z,8.98
2024-01-06T17:15:46.998Z,8.95
2024-01-06T17:18:49.855Z,8.99
2024-01-06T17:21:52.616Z,9.06
2024-01-06T17:24:55.378Z,9.13
2024-01-06T17:27:58.170Z,9.08
2024-01-06T17:31:01.788Z,8.99
2024-01-06T17:34:04.584Z,9.03
2024-01-06T17:37:07.316Z,9.06
2024-01-06T17:40:10.296Z,8.98
2024-01-06T17:43:13.808Z,9.00
2024-01-06T17:46:16.529Z,9.11
2024-01-06T17:49:19.388Z,9.00
2024-01-06T17:52:23.720Z,9.04
2024-01-06T17:55:27.523Z,9.03
2024-01-06T17:58:30.101Z,9.17
2024-01-06T18:01:33.059Z,9.07
2024-01-06T18:04:36.169Z,9.07
2024-01-06T18:07:39.265Z,9.05
2024-01-06T18:10:42.406Z,9.06
2024-01-06T18:13:44.786Z,9.21
2024-01-06T18:16:47.789Z,9.27
2024-01-06T18:19:50.415Z,9.18
2024-01-06T18:22:53.465Z,9.26
2024-01-06T18:25:55.830Z,9.27
2024-01-06T18:28:58.734Z,9.27
2024-01-06T18:32:01.065Z,9.30
2024-01-06T18:35:04.165Z,9.30
2024-01-06T18:38:06.497Z,9.22
2024-01-06T18:41:09.408Z,9.21
2024-01-06T18:44:11.754Z,9.19
2024-01-06T18:47:16.376Z,9.16
2024-01-06T18:50:20.780Z,9.17
2024-01-06T18:53:25.760Z,9.25
2024-01-06T18:56:28.721Z,9.16
2024-01-06T18:59:31.760Z,9.22
2024-01-06T19:02:34.148Z,9.11
2024-01-06T19:05:37.283Z,9.08
2024-01-06T19:08:39.746Z,9.08
2024-01-06T19:11:42.736Z,9.21
2024-01-06T19:14:47.006Z,9.22
2024-01-06T19:17:50.175Z,9.21
2024-01-06T19:20:52.975Z,9.21
2024-01-06T19:23:55.918Z,9.15
2024-01-06T19:26:58.395Z,9.09
2024-01-06T19:30:01.653Z,9.25
2024-01-06T19:33:06.515Z,9.22
2024-01-06T19:36:11.090Z,9.26
2024-01-06T19:39:14.458Z,9.15
2024-01-06T19:42:17.426Z,9.14
2024-01-06T19:45:20.177Z,9.16
2024-01-06T19:48:23.561Z,9.15
2024-01-06T19:51:28.231Z,9.20
2024-01-06T19:54:33.581Z,9.08
2024-01-06T19:57:36.468Z,9.11
2024-01-06T20:00:39.480Z,9.07
2024-01-06T20:03:42.247Z,9.18
2024-01-06T20:06:46.384Z,9.11
2024-01-06T20:09:49.210Z,9.02
2024-01-06T20:12:51.925Z,9.05
2024-01-06T20:15:55.788Z,9.15
2024-01-06T20:18:58.496Z,9.04
2024-01-06T20:22:01.258Z,9.01
2024-01-06T20:25:04.157Z,8.99
2024-01-06T20:28:06.934Z,9.02
2024-01-06T20:31:11.974Z,9.03
2024-01-06T20:34:14.977Z,8.98
2024-01-06T20:37:17.668Z,8.94
2024-01-06T20:40:20.570Z,9.04
2024-01-06T20:43:23.638Z,9.02
2024-01-06T20:46:27.482Z,9.01
2024-01-06T20:49:31.753Z,8.99
2024-01-06T20:52:34.543Z,8.98
2024-01-06T20:55:37.563Z,8.92
2024-01-06T20:58:40.943Z,9.03
2024-01-06T21:01:43.896Z,9.14
2024-01-06T21:04:46.638Z,9.26
2024-01-06T21:07:49.243Z,9.32
2024-01-06T21:10:54.603Z,9.26
2024-01-06T21:13:57.265Z,9.06
2024-01-06T21:16:59.863Z,8.97
2024-01-06T21:20:02.746Z,9.09
2024-01-06T21:23:06.007Z,9.15
2024-01-06T21:26:08.678Z,9.18
2024-01-06T21:29:12.481Z,9.07
2024-01-06T21:32:15.100Z,9.22
2024-01-06T21:35:17.750Z,9.26
2024-01-06T21:38:20.515Z,9.05
2024-01-06T21:41:23.238Z,8.97
2024-01-06T21:44:25.844Z,9.04
2024-01-06T21:47:28.438Z,9.02
2024-01-06T21:50:33.449Z,8.98
2024-01-06T21:53:36.696Z,9.08
2024-01-06T21:56:39.724Z,9.06
2024-01-06T21:59:42.952Z,8.97
2024-01-06T22:02:46.061Z,8.94
2024-01-06T22:05:48.939Z,9.06
2024-01-06T22:08:51.631Z,9.09
2024-01-06T22:11:54.579Z,9.16
2024-01-06T22:14:57.191Z,9.18
2024-01-06T22:18:00.459Z,9.07
2024-01-06T22:21:03.268Z,9.11
2024-01-06T22:24:06.107Z,9.05
2024-01-06T22:27:08.813Z,9.16
2024-01-06T22:30:13.113Z,9.07
2024-01-06T22:33:18.916Z,9.14
2024-01-06T22:36:21.793Z,9.05
2024-01-06T22:39:26.533Z,9.04
2024-01-06T22:42:29.309Z,9.11
2024-01-06T22:45:33.059Z,9.19
2024-01-06T22:48:35.908Z,9.19
2024-01-06T22:51:38.706Z,9.22
2024-01-06T22:54:41.456Z,9.37
2024-01-06T22:57:44.423Z,9.18
2024-01-06T23:00:47.586Z,9.16
2024-01-06T23:03:52.755Z,9.08
2024-01-06T23:06:55.585Z,9.18
2024-01-06T23:09:58.364Z,9.09
2024-01-06T23:13:01.124Z,9.03
2024-01-06T23:16:04.010Z,9.16
2024-01-06T23:19:07.026Z,9.13
2024-01-06T23:22:09.718Z,9.26
2024-01-06T23:25:12.553Z,9.27
2024-01-06T23:28:15.531Z,9.25
2024-01-06T23:31:19.123Z,9.20
2024-01-06T23:34:30.139Z,9.07
2024-01-06T23:37:40.864Z,9.20
2024-01-06T23:40:43.784Z,9.23
2024-01-06T23:43:46.396Z,9.03
2024-01-06T23:46:49.009Z,9.06
2024-01-06T23:49:51.739Z,8.99
2024-01-06T23:52:54.397Z,9.03
2024-01-06T23:55:56.990Z,8.96
2024-01-06T23:59:02.814Z,9.07
